createdAt,value
2022-10-01T00:20:50.455Z,8.07
2022-10-01T00:25:54.630Z,8.09
2022-10-01T00:30:57.458Z,8.11
2022-10-01T00:36:00.279Z,8.13
2022-10-01T00:41:06.121Z,8.22
2022-10-01T00:46:14.037Z,8.33
2022-10-01T00:51:17.295Z,8.35
2022-10-01T00:56:21.461Z,8.57
2022-10-01T01:01:24.730Z,8.52
2022-10-01T01:06:27.581Z,8.63
2022-10-01T01:11:43.999Z,8.72
2022-10-01T01:16:51.510Z,8.86
2022-10-01T01:21:59.087Z,8.89
2022-10-01T01:27:16.175Z,8.93
2022-10-01T01:32:25.849Z,9.03
2022-10-01T01:37:32.141Z,9.08
2022-10-01T01:42:37.953Z,9.15
2022-10-01T01:47:43.598Z,9.25
2022-10-01T01:52:46.318Z,9.33
2022-10-01T01:57:49.283Z,9.35
2022-10-01T02:02:56.490Z,9.44
2022-10-01T02:08:22.901Z,9.51
2022-10-01T02:13:38.962Z,9.54
2022-10-01T02:18:50.548Z,9.58
2022-10-01T02:23:59.136Z,9.65
2022-10-01T02:29:08.065Z,9.61
2022-10-01T02:34:19.961Z,9.60
2022-10-01T02:39:26.024Z,9.55
2022-10-01T02:44:37.901Z,9.53
2022-10-01T02:49:42.547Z,9.48
2022-10-01T02:54:51.327Z,9.42
2022-10-01T02:59:57.570Z,9.39
2022-10-01T03:05:02.179Z,9.35
2022-10-01T03:10:05.247Z,9.27
2022-10-01T03:15:08.868Z,9.22
2022-10-01T03:20:14.086Z,9.15
2022-10-01T03:25:17.387Z,9.12
2022-10-01T03:30:20.092Z,9.10
2022-10-01T03:35:24.878Z,9.05
2022-10-01T03:40:33.348Z,9.05
2022-10-01T03:45:36.070Z,9.04
2022-10-01T03:50:40.238Z,9.03
2022-10-01T03:55:43.577Z,9.00
2022-10-01T04:00:50.245Z,8.98
2022-10-01T04:05:54.370Z,8.95
2022-10-01T04:10:57.142Z,8.93
2022-10-01T04:15:59.901Z,8.88
2022-10-01T04:21:05.099Z,8.90
2022-10-01T04:26:08.171Z,8.91
2022-10-01T04:31:26.256Z,8.86
2022-10-01T04:36:31.018Z,8.88
2022-10-01T04:41:34.975Z,8.86
2022-10-01T04:46:37.919Z,8.83
2022-10-01T04:51:42.190Z,8.82
2022-10-01T04:56:44.917Z,8.80
2022-10-01T05:01:47.871Z,8.81
2022-10-01T05:06:52.117Z,8.80
2022-10-01T05:11:54.985Z,8.80
2022-10-01T05:16:57.831Z,8.80
2022-10-01T05:22:02.187Z,8.85
2022-10-01T05:27:05.088Z,8.87
2022-10-01T05:32:08.048Z,8.88
2022-10-01T05:37:12.377Z,8.87
2022-10-01T05:42:15.248Z,8.95
2022-10-01T05:47:20.569Z,9.01
2022-10-01T05:52:26.654Z,9.04
2022-10-01T05:57:30.063Z,9.06
2022-10-01T06:02:33.520Z,9.00
2022-10-01T06:07:37.872Z,9.01
2022-10-01T06:12:40.767Z,9.07
2022-10-01T06:17:45.100Z,9.07
2022-10-01T06:22:56.429Z,9.08
2022-10-01T06:28:00.599Z,9.11
2022-10-01T06:33:06.137Z,9.15
2022-10-01T06:38:11.084Z,9.16
2022-10-01T06:43:13.951Z,9.22
2022-10-01T06:48:19.609Z,9.25
2022-10-01T06:53:24.142Z,9.27
2022-10-01T06:58:27.707Z,9.34
2022-10-01T07:03:31.039Z,9.37
2022-10-01T07:08:35.263Z,9.39
2022-10-01T07:13:38.388Z,9.44
2022-10-01T07:18:41.084Z,9.52
2022-10-01T07:23:45.484Z,9.56
2022-10-01T07:28:48.258Z,9.59
2022-10-01T07:33:57.211Z,9.61
2022-10-01T07:39:02.145Z,9.66
2022-10-01T07:44:04.907Z,9.73
2022-10-01T07:49:07.767Z,9.83
2022-10-01T07:54:12.877Z,9.93
2022-10-01T07:59:16.766Z,10.05
2022-10-01T08:04:37.384Z,10.24
2022-10-01T08:09:42.104Z,10.34
2022-10-01T08:14:45.819Z,10.46
2022-10-01T08:19:48.702Z,10.62
2022-10-01T08:24:52.774Z,10.78
2022-10-01T08:29:55.609Z,11.03
2022-10-01T08:35:00.016Z,11.24
2022-10-01T08:40:06.010Z,11.29
2022-10-01T08:45:15.247Z,11.28
2022-10-01T08:50:29.794Z,11.30
2022-10-01T08:55:37.425Z,11.24
2022-10-01T09:00:45.957Z,11.32
2022-10-01T09:06:10.117Z,11.48
2022-10-01T09:11:33.008Z,11.72
2022-10-01T09:16:42.782Z,11.61
2022-10-01T09:21:55.793Z,11.82
2022-10-01T09:27:00.792Z,12.11
2022-10-01T09:32:06.331Z,12.25
2022-10-01T09:37:21.215Z,12.49
2022-10-01T09:42:29.030Z,12.60
2022-10-01T09:47:34.421Z,12.83
2022-10-01T09:52:40.201Z,13.10
2022-10-01T09:57:51.566Z,13.16
2022-10-01T10:02:56.287Z,13.05
2022-10-01T10:08:04.474Z,13.12
2022-10-01T10:13:21.435Z,13.07
2022-10-01T10:18:31.071Z,12.95
2022-10-01T10:23:34.318Z,12.76
2022-10-01T10:28:44.587Z,12.94
2022-10-01T10:33:53.310Z,12.96
2022-10-01T10:38:57.933Z,13.14
2022-10-01T10:44:06.166Z,13.36
2022-10-01T10:49:17.058Z,13.53
2022-10-01T10:54:23.107Z,13.95
2022-10-01T10:59:27.322Z,14.18
2022-10-01T11:04:41.029Z,14.43
2022-10-01T11:10:04.433Z,14.39
2022-10-01T11:15:24.031Z,14.99
2022-10-01T11:20:39.603Z,15.03
2022-10-01T11:25:52.729Z,15.41
2022-10-01T11:31:03.298Z,16.57
2022-10-01T11:36:15.244Z,17.22
2022-10-01T11:41:28.393Z,17.02
2022-10-01T11:46:42.459Z,17.18
2022-10-01T11:51:51.229Z,17.04
2022-10-01T11:57:16.063Z,16.90
2022-10-01T12:02:28.207Z,16.83
2022-10-01T12:07:38.510Z,18.30
2022-10-01T12:12:48.074Z,18.03
2022-10-01T12:17:56.456Z,17.44
2022-10-01T12:23:02.344Z,17.00
2022-10-01T12:28:10.763Z,18.21
2022-10-01T12:33:40.897Z,17.72
2022-10-01T12:38:55.458Z,17.77
2022-10-01T12:44:25.016Z,18.78
2022-10-01T12:49:35.131Z,20.48
2022-10-01T12:54:58.013Z,18.90
2022-10-01T13:00:09.977Z,18.03
2022-10-01T13:05:28.778Z,17.74
2022-10-01T13:10:48.718Z,17.62
2022-10-01T13:15:59.678Z,18.40
2022-10-01T13:21:12.339Z,18.18
2022-10-01T13:26:21.052Z,17.87
2022-10-01T13:31:35.097Z,17.32
2022-10-01T13:36:41.083Z,17.25
2022-10-01T13:41:44.338Z,17.26
2022-10-01T13:46:53.081Z,17.10
2022-10-01T13:51:58.159Z,17.33
2022-10-01T13:57:08.903Z,17.89
2022-10-01T14:02:29.894Z,18.27
2022-10-01T14:07:39.919Z,18.71
2022-10-01T14:13:03.436Z,18.42
2022-10-01T14:18:11.287Z,18.05
2022-10-01T14:23:20.857Z,17.52
2022-10-01T14:28:49.908Z,16.63
2022-10-01T14:34:10.638Z,16.04
2022-10-01T14:39:17.742Z,15.42
2022-10-01T14:44:22.118Z,15.06
2022-10-01T14:49:27.390Z,14.84
2022-10-01T14:54:39.287Z,14.89
2022-10-01T14:59:42.475Z,15.17
2022-10-01T15:04:48.981Z,15.08
2022-10-01T15:09:53.160Z,14.94
2022-10-01T15:14:56.825Z,14.97
2022-10-01T15:19:59.935Z,14.88
2022-10-01T15:25:04.258Z,15.03
2022-10-01T15:30:14.894Z,15.10
2022-10-01T15:35:22.011Z,15.18
2022-10-01T15:40:28.830Z,15.30
2022-10-01T15:45:31.583Z,15.34
2022-10-01T15:50:37.551Z,15.32
2022-10-01T15:55:44.697Z,15.46
2022-10-01T16:00:57.560Z,15.35
2022-10-01T16:06:03.295Z,15.21
2022-10-01T16:11:18.685Z,15.19
2022-10-01T16:16:25.138Z,15.05
2022-10-01T16:21:28.189Z,15.00
2022-10-01T16:26:52.227Z,14.93
2022-10-01T16:31:56.923Z,14.80
2022-10-01T16:37:00.031Z,14.71
2022-10-01T16:42:23.196Z,14.61
2022-10-01T16:47:26.706Z,14.50
2022-10-01T16:52:29.497Z,14.39
2022-10-01T16:57:34.220Z,14.33
2022-10-01T17:02:36.909Z,14.13
2022-10-01T17:07:39.703Z,14.00
2022-10-01T17:12:44.521Z,13.82
2022-10-01T17:17:47.755Z,13.64
2022-10-01T17:22:51.646Z,13.45
2022-10-01T17:27:56.736Z,13.24
2022-10-01T17:33:02.121Z,13.10
2022-10-01T17:38:04.888Z,12.93
2022-10-01T17:43:11.638Z,12.77
2022-10-01T17:48:16.213Z,12.71
2022-10-01T17:53:21.787Z,12.50
2022-10-01T17:58:26.715Z,12.36
2022-10-01T18:03:29.918Z,12.24
2022-10-01T18:14:00.996Z,12.15
2022-10-01T18:24:27.326Z,12.22
2022-10-01T18:29:31.618Z,12.30
2022-10-01T18:34:40.717Z,12.36
2022-10-01T18:39:46.357Z,12.39
2022-10-01T18:44:53.719Z,12.38
2022-10-01T18:50:11.133Z,12.51
2022-10-01T18:55:30.352Z,12.52
2022-10-01T19:00:41.673Z,12.57
2022-10-01T19:06:04.759Z,12.57
2022-10-01T19:11:18.167Z,12.55
2022-10-01T19:16:38.147Z,12.50
2022-10-01T19:21:49.326Z,12.41
2022-10-01T19:26:58.887Z,12.33
2022-10-01T19:32:08.423Z,12.23
2022-10-01T19:37:17.079Z,12.18
2022-10-01T19:42:24.276Z,12.13
2022-10-01T19:47:37.340Z,12.06
2022-10-01T19:52:42.668Z,12.01
2022-10-01T19:57:46.334Z,11.92
2022-10-01T20:03:02.159Z,11.87
2022-10-01T20:08:14.517Z,11.84
2022-10-01T20:13:28.208Z,11.79
2022-10-01T20:18:40.967Z,11.73
2022-10-01T20:23:50.191Z,11.69
2022-10-01T20:29:09.285Z,11.68
2022-10-01T20:34:21.623Z,11.63
2022-10-01T20:39:29.172Z,11.58
2022-10-01T20:44:36.386Z,11.51
2022-10-01T20:49:46.324Z,11.43
2022-10-01T20:54:52.854Z,11.38
2022-10-01T20:59:59.356Z,11.32
2022-10-01T21:05:08.971Z,11.30
2022-10-01T21:10:26.200Z,11.28
2022-10-01T21:15:35.195Z,11.26
2022-10-01T21:20:49.048Z,11.24
2022-10-01T21:26:05.841Z,11.19
2022-10-01T21:31:21.550Z,11.14
2022-10-01T21:36:32.142Z,11.09
2022-10-01T21:41:52.059Z,11.02
2022-10-01T21:47:00.947Z,11.00
2022-10-01T21:52:17.712Z,11.00
2022-10-01T21:57:36.813Z,10.96
2022-10-01T22:02:47.496Z,10.93
2022-10-01T22:08:02.186Z,10.97
2022-10-01T22:13:12.331Z,11.02
2022-10-01T22:18:20.247Z,11.07
2022-10-01T22:23:26.489Z,11.15
2022-10-01T22:28:36.095Z,11.25
2022-10-01T22:33:44.963Z,11.34
2022-10-01T22:38:54.048Z,11.38
2022-10-01T22:43:57.039Z,11.46
2022-10-01T22:49:04.733Z,11.49
2022-10-01T22:54:31.139Z,11.55
2022-10-01T22:59:43.513Z,11.58
2022-10-01T23:04:58.735Z,11.53
2022-10-01T23:10:10.382Z,11.51
2022-10-01T23:15:26.799Z,11.43
2022-10-01T23:20:33.005Z,11.39
2022-10-01T23:25:49.818Z,11.32
2022-10-01T23:31:03.602Z,11.26
2022-10-01T23:36:17.293Z,11.29
2022-10-01T23:41:26.372Z,11.30
2022-10-01T23:46:32.465Z,11.32
2022-10-01T23:51:39.205Z,11.31
2022-10-01T23:56:50.812Z,11.29
